x

Sentry Shoal (46131) Wave Buoy

2:00pm - Tue 25th Nov 2014 All times are PST. -8 hours from GMT.

  • Sig Wave height 0.3ft
  • Peak Period 8s
  • Wind
    2mph
  • Sea Temp 49°f
  • 空気 Temp 44°f
  • Sea Pressure 1023.2mb
  • Sentry Shoal
  • Sentry Shoal

More Historic Weather Station data

Upgrade to MSW Pro to gain access to the past 30 days of data for over 8000 Wavebouys and Weather Stations around the globe.

Join Pro

Comparision Forecast

View Surf forecast
   
Tue 11/25 2:00pm 0.3ft 8s 2
mph
1023.2mb 49f 44f
1:00pm 0.3ft 8s 4 7 mph 1023.7mb 49f 44f
12:00pm  -  8s 4 7 mph 1024mb 49f 45f
11:00am 0.3ft 7s 4 7 mph 1024.2mb 49f 45f
10:00am 0.3ft 7s 4 7 mph 1024mb 49f 45f
9:00am 0.3ft 3s 4 7 mph 1023.7mb 49f 45f
8:00am 0.3ft 2s 4
mph
1023.1mb 49f 45f
7:00am 0.3ft 2s 7 9 mph 1023.1mb 49f 45f
6:00am 0.3ft 2s 7 9 mph 1022.5mb 49f 45f
5:00am 0.7ft 2s 7 9 mph 1022mb 49f 45f
4:00am 0.3ft 2s 9 11 mph 1022.5mb 49f 46f
3:00am 0.3ft 3s 9 11 mph 1022.3mb 50f 45f
2:00am 0.3ft 2s 7 9 mph 1021.8mb 50f 45f
1:00am 0.3ft 2s 7 9 mph 1021.7mb 50f 45f
12:00am 0.7ft 2s 4 7 mph 1021.3mb 50f 45f
Mon 11/24 11:00pm 0.7ft 4s 9 11 mph 1020.7mb 49f 45f
10:00pm 1ft 5s 7 9 mph 1019.6mb 49f 45f
9:00pm 1ft 5s 4 7 mph 1019.2mb 49f 45f
8:00pm 1.6ft 5s 4
mph
1019mb 49f 45f
7:00pm  -   -  7
mph
1019.2mb - 45f
6:00pm 3.5ft 5s 9 11 mph 1018.9mb 49f 46f
5:00pm 4.5ft 5s 20 25 mph 1017.3mb 49f 47f
4:00pm 5ft 6s 22 27 mph 1017.6mb 49f 47f
3:00pm 4.5ft 6s 25 29 mph 1018.1mb 49f 47f
2:00pm 4.5ft 5s 22 27 mph 1018.8mb 49f 48f
1:00pm 4.5ft 5s 27 34 mph 1019.1mb 49f 48f
12:00pm 5ft 6s 29 36 mph 1019.7mb 49f 48f
11:00am 5ft 5s 29 36 mph 1020.4mb 49f 48f
10:00am 4.5ft 5s 31 36 mph 1020.9mb 49f 48f
9:00am 4.5ft 6s 25 29 mph 1021.7mb 49f 48f
8:00am 3.5ft 5s 22 27 mph 1022.3mb 49f 47f
7:00am 3.5ft 4s 22 27 mph 1023.1mb 49f 47f
6:00am 2.5ft 4s 22 27 mph 1023.3mb 49f 47f
5:00am 1.6ft 3s 18 22 mph 1024.2mb 49f 47f
4:00am 1.6ft 3s 18 22 mph 1024.7mb 49f 47f
3:00am 1.3ft 3s 16 20 mph 1025.4mb 49f 47f
2:00am 0.7ft 2s 13 18 mph 1026.3mb 49f 46f
1:00am 0.7ft 2s 2 7 mph 1026.4mb 49f 45f
12:00am 0.3ft 2s 9 11 mph 1026mb 49f 46f
Sun 11/23 11:00pm 0.3ft 2s 2 7 mph 1025.7mb 49f 47f
10:00pm  -  8s 7
mph
1025.4mb 49f 45f
9:00pm  -  8s 2
mph
1024.2mb 49f 47f
8:00pm  -  8s 7
mph
1023.7mb 49f 47f
7:00pm  -  8s 2 4 mph 1023.2mb 49f 48f
6:00pm 0.3ft 8s 2 4 mph 1022.7mb 49f 48f
5:00pm  -  4s 2
mph
1021.6mb 49f 48f
4:00pm  -  6s 7
mph
1020.7mb 49f 48f
3:00pm 0.3ft 4s 2 4 mph 1020mb 49f 49f
2:00pm 0.3ft 4s 2 4 mph 1019.6mb 49f 48f
1:00pm 0.3ft 3s 2
mph
1018.8mb 50f 49f
12:00pm 0.3ft 3s 2 4 mph 1018.3mb 50f 48f
11:00am 0.3ft 3s 2 4 mph 1017.4mb 49f 48f
10:00am 0.7ft 3s 4
mph
1016.4mb 49f 47f
9:00am 1ft 4s 7 9 mph 1015.1mb 49f 45f
8:00am 1.6ft 4s 2 4 mph 1013.9mb 49f 45f
7:00am 2.5ft 5s 4 7 mph 1013.3mb 49f 45f
6:00am 3.5ft 4s 11 13 mph 1012.3mb 49f 46f
5:00am 4.5ft 5s 20 25 mph 1012.4mb 49f 47f
4:00am 4.5ft 5s 20 25 mph 1011.9mb 49f 47f
3:00am 5ft 5s 27 31 mph 1011.5mb 49f 48f
2:00am 4ft 4s 29 36 mph 1012.1mb 49f 49f
1:00am 3ft 4s 27 34 mph 1013.3mb 49f 49f
12:00am 2.5ft 3s 13 18 mph 1014.4mb 49f 48f
Sat 11/22 11:00pm 1.6ft 3s 20 22 mph 1014.5mb 49f 49f
10:00pm 1.3ft 2s 16 20 mph 1014.9mb 49f 49f
9:00pm 0.3ft 2s 11 13 mph 1015mb 49f 48f
8:00pm 0.3ft 7s 7
mph
1014.8mb 49f 48f
7:00pm 0.3ft 7s 9
mph
1013.8mb 49f 48f
6:00pm  -  8s 7
mph
1013.9mb 49f 48f
5:00pm  -  4s 7
mph
1012.7mb 49f 48f
4:00pm  -  5s 4 7 mph 1012.4mb 49f 48f
3:00pm  -  3s 2 4 mph 1011.6mb 49f 51f
2:00pm 0.3ft 3s 2
mph
1011mb 49f 49f
1:00pm 0.3ft 2s 4
mph
1010.2mb 49f 48f
12:00pm 0.3ft 2s 7 9 mph 1009.1mb 49f 47f
11:00am 0.3ft 2s 9
mph
1008.2mb 49f 47f
10:00am  -  4s 4 7 mph 1007mb 49f 47f
9:00am  -  4s 4 7 mph 1005.7mb 49f 47f
8:00am 0.3ft 3s  -  2 mph 1004.4mb 49f 46f
7:00am 0.3ft 7s 4 7 mph 1003.3mb 49f 46f
6:00am 0.3ft 7s 2 4 mph 1002.2mb 49f 45f
5:00am 0.3ft 3s 4
mph
1001.4mb 49f 45f
4:00am 0.3ft 3s 4
mph
1000.7mb 49f 46f
3:00am 0.3ft 3s 7
mph
999.9mb 49f 46f
2:00am 0.7ft 3s 4
mph
999mb 49f 47f
1:00am 0.7ft 3s 4 7 mph 998.1mb 49f 48f
12:00am 1ft 3s 13 18 mph 996.7mb 49f 49f